sensor_id;sensor_type;location;lat;lon;timestamp;P1;durP1;ratioP1;P2;durP2;ratioP2
50056;SDS011;36875;49.468;11.200;2022-08-26T00:00:05;10.48;;;6.60;;
50056;SDS011;36875;49.468;11.200;2022-08-26T00:02:34;10.70;;;6.97;;
50056;SDS011;36875;49.468;11.200;2022-08-26T00:04:59;8.27;;;6.38;;
50056;SDS011;36875;49.468;11.200;2022-08-26T00:07:25;11.13;;;7.20;;
50056;SDS011;36875;49.468;11.200;2022-08-26T00:09:51;13.80;;;6.82;;
50056;SDS011;36875;49.468;11.200;2022-08-26T00:12:16;10.70;;;7.32;;
50056;SDS011;36875;49.468;11.200;2022-08-26T00:14:42;11.50;;;6.97;;
50056;SDS011;36875;49.468;11.200;2022-08-26T00:17:08;10.20;;;7.65;;
50056;SDS011;36875;49.468;11.200;2022-08-26T00:19:35;10.00;;;7.07;;
50056;SDS011;36875;49.468;11.200;2022-08-26T00:22:00;12.75;;;7.53;;
50056;SDS011;36875;49.468;11.200;2022-08-26T00:24:26;10.52;;;7.10;;
50056;SDS011;36875;49.468;11.200;2022-08-26T00:26:52;10.65;;;6.78;;
50056;SDS011;36875;49.468;11.200;2022-08-26T00:29:17;12.27;;;7.68;;
50056;SDS011;36875;49.468;11.200;2022-08-26T00:31:43;11.23;;;7.35;;
50056;SDS011;36875;49.468;11.200;2022-08-26T00:34:09;10.90;;;7.25;;
50056;SDS011;36875;49.468;11.200;2022-08-26T00:36:36;11.70;;;7.10;;
50056;SDS011;36875;49.468;11.200;2022-08-26T00:39:04;11.38;;;7.03;;
50056;SDS011;36875;49.468;11.200;2022-08-26T00:41:31;12.70;;;7.70;;
50056;SDS011;36875;49.468;11.200;2022-08-26T00:43:57;12.05;;;7.45;;
50056;SDS011;36875;49.468;11.200;2022-08-26T00:46:24;11.73;;;8.15;;
50056;SDS011;36875;49.468;11.200;2022-08-26T00:48:55;11.43;;;7.75;;
50056;SDS011;36875;49.468;11.200;2022-08-26T00:51:27;10.95;;;7.55;;
50056;SDS011;36875;49.468;11.200;2022-08-26T00:53:55;13.30;;;8.10;;
50056;SDS011;36875;49.468;11.200;2022-08-26T00:56:27;11.13;;;7.18;;
50056;SDS011;36875;49.468;11.200;2022-08-26T00:58:57;13.00;;;7.95;;
50056;SDS011;36875;49.468;11.200;2022-08-26T01:01:25;12.63;;;7.03;;
50056;SDS011;36875;49.468;11.200;2022-08-26T01:03:52;14.07;;;8.18;;
50056;SDS011;36875;49.468;11.200;2022-08-26T01:06:19;12.43;;;7.15;;
50056;SDS011;36875;49.468;11.200;2022-08-26T01:08:46;11.77;;;7.70;;
50056;SDS011;36875;49.468;11.200;2022-08-26T01:11:12;10.05;;;7.43;;
50056;SDS011;36875;49.468;11.200;2022-08-26T01:13:40;13.98;;;7.75;;
50056;SDS011;36875;49.468;11.200;2022-08-26T01:16:06;12.77;;;8.13;;
50056;SDS011;36875;49.468;11.200;2022-08-26T01:18:38;11.90;;;7.90;;
50056;SDS011;36875;49.468;11.200;2022-08-26T01:21:06;12.88;;;7.32;;
50056;SDS011;36875;49.468;11.200;2022-08-26T01:23:41;12.63;;;7.78;;
50056;SDS011;36875;49.468;11.200;2022-08-26T01:26:10;11.98;;;7.80;;
50056;SDS011;36875;49.468;11.200;2022-08-26T01:28:39;10.50;;;7.43;;
50056;SDS011;36875;49.468;11.200;2022-08-26T01:31:06;12.43;;;7.25;;
50056;SDS011;36875;49.468;11.200;2022-08-26T01:33:38;11.95;;;7.88;;
50056;SDS011;36875;49.468;11.200;2022-08-26T01:36:11;12.85;;;7.95;;
50056;SDS011;36875;49.468;11.200;2022-08-26T01:38:37;14.18;;;7.40;;
50056;SDS011;36875;49.468;11.200;2022-08-26T01:41:05;11.35;;;7.75;;
50056;SDS011;36875;49.468;11.200;2022-08-26T01:43:32;10.65;;;7.78;;
50056;SDS011;36875;49.468;11.200;2022-08-26T01:46:02;11.63;;;7.97;;
50056;SDS011;36875;49.468;11.200;2022-08-26T01:48:29;11.35;;;7.63;;
50056;SDS011;36875;49.468;11.200;2022-08-26T01:50:56;13.15;;;7.55;;
50056;SDS011;36875;49.468;11.200;2022-08-26T01:53:24;10.68;;;7.88;;
50056;SDS011;36875;49.468;11.200;2022-08-26T01:55:51;10.63;;;7.40;;
50056;SDS011;36875;49.468;11.200;2022-08-26T01:58:23;13.18;;;8.50;;
50056;SDS011;36875;49.468;11.200;2022-08-26T02:00:52;11.75;;;7.90;;
50056;SDS011;36875;49.468;11.200;2022-08-26T02:03:18;12.70;;;7.82;;
50056;SDS011;36875;49.468;11.200;2022-08-26T02:05:49;11.13;;;8.20;;
50056;SDS011;36875;49.468;11.200;2022-08-26T02:08:17;12.60;;;8.15;;
50056;SDS011;36875;49.468;11.200;2022-08-26T02:10:45;14.85;;;8.18;;
50056;SDS011;36875;49.468;11.200;2022-08-26T02:13:11;12.82;;;7.93;;
50056;SDS011;36875;49.468;11.200;2022-08-26T02:15:40;10.50;;;7.53;;
50056;SDS011;36875;49.468;11.200;2022-08-26T02:18:07;11.07;;;7.88;;
50056;SDS011;36875;49.468;11.200;2022-08-26T02:20:34;13.27;;;8.13;;
50056;SDS011;36875;49.468;11.200;2022-08-26T02:23:00;10.70;;;7.40;;
50056;SDS011;36875;49.468;11.200;2022-08-26T02:25:27;11.48;;;7.97;;
50056;SDS011;36875;49.468;11.200;2022-08-26T02:27:56;12.93;;;7.85;;
50056;SDS011;36875;49.468;11.200;2022-08-26T02:30:23;11.15;;;7.38;;
50056;SDS011;36875;49.468;11.200;2022-08-26T02:32:51;12.25;;;7.72;;
50056;SDS011;36875;49.468;11.200;2022-08-26T02:35:19;10.88;;;7.40;;
50056;SDS011;36875;49.468;11.200;2022-08-26T02:37:46;10.75;;;7.57;;
50056;SDS011;36875;49.468;11.200;2022-08-26T02:40:13;11.27;;;7.82;;
50056;SDS011;36875;49.468;11.200;2022-08-26T02:42:39;13.48;;;7.82;;
50056;SDS011;36875;49.468;11.200;2022-08-26T02:45:05;12.48;;;7.82;;
50056;SDS011;36875;49.468;11.200;2022-08-26T02:47:32;11.55;;;7.28;;
50056;SDS011;36875;49.468;11.200;2022-08-26T02:50:00;11.25;;;7.38;;
50056;SDS011;36875;49.468;11.200;2022-08-26T02:52:25;11.48;;;7.63;;
50056;SDS011;36875;49.468;11.200;2022-08-26T02:54:51;13.20;;;8.18;;
50056;SDS011;36875;49.468;11.200;2022-08-26T02:57:17;11.45;;;7.57;;
50056;SDS011;36875;49.468;11.200;2022-08-26T02:59:43;13.38;;;7.43;;
50056;SDS011;36875;49.468;11.200;2022-08-26T03:02:09;11.13;;;7.70;;
50056;SDS011;36875;49.468;11.200;2022-08-26T03:04:36;12.13;;;8.07;;
50056;SDS011;36875;49.468;11.200;2022-08-26T03:07:03;12.70;;;7.93;;
50056;SDS011;36875;49.468;11.200;2022-08-26T03:09:29;12.80;;;7.45;;
50056;SDS011;36875;49.468;11.200;2022-08-26T03:11:55;13.88;;;8.02;;
50056;SDS011;36875;49.468;11.200;2022-08-26T03:14:22;11.68;;;7.90;;
50056;SDS011;36875;49.468;11.200;2022-08-26T03:16:48;14.55;;;8.15;;
50056;SDS011;36875;49.468;11.200;2022-08-26T03:19:16;10.52;;;7.88;;
50056;SDS011;36875;49.468;11.200;2022-08-26T03:21:42;11.18;;;7.95;;
50056;SDS011;36875;49.468;11.200;2022-08-26T03:24:10;10.75;;;7.65;;
50056;SDS011;36875;49.468;11.200;2022-08-26T03:26:36;11.25;;;7.50;;
50056;SDS011;36875;49.468;11.200;2022-08-26T03:29:02;12.45;;;7.55;;
50056;SDS011;36875;49.468;11.200;2022-08-26T03:31:46;11.68;;;7.82;;
50056;SDS011;36875;49.468;11.200;2022-08-26T03:34:12;12.73;;;7.88;;
50056;SDS011;36875;49.468;11.200;2022-08-26T03:36:38;12.35;;;8.40;;
50056;SDS011;36875;49.468;11.200;2022-08-26T03:39:04;16.67;;;7.60;;
50056;SDS011;36875;49.468;11.200;2022-08-26T03:41:31;12.50;;;7.72;;
50056;SDS011;36875;49.468;11.200;2022-08-26T03:43:57;11.75;;;7.50;;
50056;SDS011;36875;49.468;11.200;2022-08-26T03:46:23;15.13;;;8.00;;
50056;SDS011;36875;49.468;11.200;2022-08-26T03:48:49;14.93;;;7.63;;
50056;SDS011;36875;49.468;11.200;2022-08-26T03:51:15;11.90;;;7.55;;
50056;SDS011;36875;49.468;11.200;2022-08-26T03:53:42;12.07;;;7.32;;
50056;SDS011;36875;49.468;11.200;2022-08-26T03:56:08;13.18;;;7.43;;
50056;SDS011;36875;49.468;11.200;2022-08-26T03:58:36;12.35;;;7.40;;
50056;SDS011;36875;49.468;11.200;2022-08-26T04:01:02;13.93;;;8.20;;
50056;SDS011;36875;49.468;11.200;2022-08-26T04:03:28;11.15;;;7.65;;
50056;SDS011;36875;49.468;11.200;2022-08-26T04:06:13;10.20;;;7.53;;
50056;SDS011;36875;49.468;11.200;2022-08-26T04:08:39;13.18;;;7.63;;
50056;SDS011;36875;49.468;11.200;2022-08-26T04:11:04;10.13;;;7.57;;
50056;SDS011;36875;49.468;11.200;2022-08-26T04:13:30;14.02;;;7.80;;
50056;SDS011;36875;49.468;11.200;2022-08-26T04:15:57;12.82;;;8.02;;
50056;SDS011;36875;49.468;11.200;2022-08-26T04:18:23;12.27;;;7.85;;
50056;SDS011;36875;49.468;11.200;2022-08-26T04:20:52;14.68;;;8.20;;
50056;SDS011;36875;49.468;11.200;2022-08-26T04:23:18;10.88;;;7.60;;
50056;SDS011;36875;49.468;11.200;2022-08-26T04:25:43;13.95;;;8.05;;
50056;SDS011;36875;49.468;11.200;2022-08-26T04:28:09;12.02;;;7.63;;
50056;SDS011;36875;49.468;11.200;2022-08-26T04:30:35;10.95;;;7.93;;
50056;SDS011;36875;49.468;11.200;2022-08-26T04:33:02;12.77;;;8.15;;
50056;SDS011;36875;49.468;11.200;2022-08-26T04:35:28;12.35;;;8.40;;
50056;SDS011;36875;49.468;11.200;2022-08-26T04:37:54;11.30;;;7.75;;
50056;SDS011;36875;49.468;11.200;2022-08-26T04:40:19;13.48;;;8.13;;
50056;SDS011;36875;49.468;11.200;2022-08-26T04:42:45;14.25;;;7.55;;
50056;SDS011;36875;49.468;11.200;2022-08-26T04:45:11;12.02;;;7.70;;
50056;SDS011;36875;49.468;11.200;2022-08-26T04:47:38;12.70;;;7.55;;
50056;SDS011;36875;49.468;11.200;2022-08-26T04:50:05;13.27;;;7.72;;
50056;SDS011;36875;49.468;11.200;2022-08-26T04:52:32;13.70;;;7.78;;
50056;SDS011;36875;49.468;11.200;2022-08-26T04:54:58;10.10;;;7.57;;
50056;SDS011;36875;49.468;11.200;2022-08-26T04:57:24;17.27;;;8.13;;
50056;SDS011;36875;49.468;11.200;2022-08-26T04:59:49;12.45;;;7.90;;
50056;SDS011;36875;49.468;11.200;2022-08-26T05:02:15;13.15;;;7.47;;
50056;SDS011;36875;49.468;11.200;2022-08-26T05:04:40;11.60;;;7.30;;
50056;SDS011;36875;49.468;11.200;2022-08-26T05:07:09;12.45;;;7.90;;
50056;SDS011;36875;49.468;11.200;2022-08-26T05:09:34;11.65;;;7.80;;
50056;SDS011;36875;49.468;11.200;2022-08-26T05:12:00;11.57;;;7.70;;
50056;SDS011;36875;49.468;11.200;2022-08-26T05:14:26;15.07;;;8.07;;
50056;SDS011;36875;49.468;11.200;2022-08-26T05:16:52;13.43;;;7.78;;
50056;SDS011;36875;49.468;11.200;2022-08-26T05:19:18;15.05;;;8.02;;
50056;SDS011;36875;49.468;11.200;2022-08-26T05:21:43;14.52;;;8.07;;
50056;SDS011;36875;49.468;11.200;2022-08-26T05:24:11;14.02;;;8.13;;
50056;SDS011;36875;49.468;11.200;2022-08-26T05:26:37;12.73;;;7.95;;
50056;SDS011;36875;49.468;11.200;2022-08-26T05:29:02;13.52;;;7.93;;
50056;SDS011;36875;49.468;11.200;2022-08-26T05:31:30;14.02;;;8.27;;
50056;SDS011;36875;49.468;11.200;2022-08-26T05:33:57;13.68;;;8.18;;
50056;SDS011;36875;49.468;11.200;2022-08-26T05:36:25;14.48;;;8.02;;
50056;SDS011;36875;49.468;11.200;2022-08-26T05:38:54;11.65;;;7.82;;
50056;SDS011;36875;49.468;11.200;2022-08-26T05:41:22;11.80;;;8.52;;
50056;SDS011;36875;49.468;11.200;2022-08-26T05:43:52;11.88;;;8.00;;
50056;SDS011;36875;49.468;11.200;2022-08-26T05:46:19;11.65;;;7.90;;
50056;SDS011;36875;49.468;11.200;2022-08-26T05:48:45;17.33;;;8.30;;
50056;SDS011;36875;49.468;11.200;2022-08-26T05:51:11;15.48;;;8.52;;
50056;SDS011;36875;49.468;11.200;2022-08-26T05:53:37;13.57;;;8.20;;
50056;SDS011;36875;49.468;11.200;2022-08-26T05:56:05;11.63;;;7.53;;
50056;SDS011;36875;49.468;11.200;2022-08-26T05:58:33;12.07;;;7.55;;
50056;SDS011;36875;49.468;11.200;2022-08-26T06:01:01;12.25;;;7.95;;
50056;SDS011;36875;49.468;11.200;2022-08-26T06:03:28;12.07;;;7.90;;
50056;SDS011;36875;49.468;11.200;2022-08-26T06:05:55;16.02;;;8.32;;
50056;SDS011;36875;49.468;11.200;2022-08-26T06:08:21;12.50;;;7.63;;
50056;SDS011;36875;49.468;11.200;2022-08-26T06:10:48;12.30;;;7.35;;
50056;SDS011;36875;49.468;11.200;2022-08-26T06:13:16;12.90;;;8.52;;
50056;SDS011;36875;49.468;11.200;2022-08-26T06:15:44;14.13;;;8.23;;
50056;SDS011;36875;49.468;11.200;2022-08-26T06:18:11;12.65;;;8.18;;
50056;SDS011;36875;49.468;11.200;2022-08-26T06:20:38;13.95;;;8.25;;
50056;SDS011;36875;49.468;11.200;2022-08-26T06:23:07;12.32;;;7.90;;
50056;SDS011;36875;49.468;11.200;2022-08-26T06:25:52;11.20;;;7.95;;
50056;SDS011;36875;49.468;11.200;2022-08-26T06:28:18;13.27;;;7.68;;
50056;SDS011;36875;49.468;11.200;2022-08-26T06:30:45;11.43;;;7.65;;
50056;SDS011;36875;49.468;11.200;2022-08-26T06:33:11;12.60;;;8.00;;
50056;SDS011;36875;49.468;11.200;2022-08-26T06:35:38;11.82;;;7.57;;
50056;SDS011;36875;49.468;11.200;2022-08-26T06:38:04;13.00;;;7.75;;
50056;SDS011;36875;49.468;11.200;2022-08-26T06:40:30;12.77;;;8.25;;
50056;SDS011;36875;49.468;11.200;2022-08-26T06:42:56;12.23;;;7.70;;
50056;SDS011;36875;49.468;11.200;2022-08-26T06:45:22;15.38;;;8.35;;
50056;SDS011;36875;49.468;11.200;2022-08-26T06:47:49;16.13;;;8.02;;
50056;SDS011;36875;49.468;11.200;2022-08-26T06:50:15;14.88;;;7.88;;
50056;SDS011;36875;49.468;11.200;2022-08-26T06:52:41;12.93;;;7.95;;
50056;SDS011;36875;49.468;11.200;2022-08-26T06:55:07;15.95;;;7.95;;
50056;SDS011;36875;49.468;11.200;2022-08-26T06:57:34;16.83;;;8.40;;
50056;SDS011;36875;49.468;11.200;2022-08-26T07:00:01;15.45;;;7.93;;
50056;SDS011;36875;49.468;11.200;2022-08-26T07:02:28;12.45;;;8.20;;
50056;SDS011;36875;49.468;11.200;2022-08-26T07:04:55;15.48;;;8.65;;
50056;SDS011;36875;49.468;11.200;2022-08-26T07:07:21;16.88;;;8.65;;
50056;SDS011;36875;49.468;11.200;2022-08-26T07:09:47;21.08;;;8.63;;
50056;SDS011;36875;49.468;11.200;2022-08-26T07:12:14;24.85;;;9.05;;
50056;SDS011;36875;49.468;11.200;2022-08-26T07:14:40;19.75;;;8.88;;
50056;SDS011;36875;49.468;11.200;2022-08-26T07:17:06;17.80;;;8.57;;
50056;SDS011;36875;49.468;11.200;2022-08-26T07:19:31;18.48;;;8.52;;
50056;SDS011;36875;49.468;11.200;2022-08-26T07:21:59;21.00;;;8.98;;
50056;SDS011;36875;49.468;11.200;2022-08-26T07:24:26;17.90;;;8.52;;
50056;SDS011;36875;49.468;11.200;2022-08-26T07:26:52;19.85;;;8.43;;
50056;SDS011;36875;49.468;11.200;2022-08-26T07:29:18;15.18;;;8.70;;
50056;SDS011;36875;49.468;11.200;2022-08-26T07:31:43;19.85;;;8.07;;
50056;SDS011;36875;49.468;11.200;2022-08-26T07:34:09;15.18;;;8.40;;
50056;SDS011;36875;49.468;11.200;2022-08-26T07:36:37;15.98;;;8.35;;
50056;SDS011;36875;49.468;11.200;2022-08-26T07:39:04;14.85;;;8.02;;
50056;SDS011;36875;49.468;11.200;2022-08-26T07:41:30;18.02;;;8.15;;
50056;SDS011;36875;49.468;11.200;2022-08-26T07:43:56;12.48;;;7.82;;
50056;SDS011;36875;49.468;11.200;2022-08-26T07:46:22;17.45;;;8.30;;
50056;SDS011;36875;49.468;11.200;2022-08-26T07:48:48;15.73;;;8.85;;
50056;SDS011;36875;49.468;11.200;2022-08-26T07:51:15;13.35;;;8.10;;
50056;SDS011;36875;49.468;11.200;2022-08-26T07:53:42;16.42;;;8.70;;
50056;SDS011;36875;49.468;11.200;2022-08-26T07:56:09;14.20;;;8.57;;
50056;SDS011;36875;49.468;11.200;2022-08-26T07:58:35;15.52;;;7.90;;
50056;SDS011;36875;49.468;11.200;2022-08-26T08:01:01;20.83;;;8.65;;
50056;SDS011;36875;49.468;11.200;2022-08-26T08:03:27;21.33;;;8.93;;
50056;SDS011;36875;49.468;11.200;2022-08-26T08:05:53;19.42;;;9.15;;
50056;SDS011;36875;49.468;11.200;2022-08-26T08:08:19;17.80;;;8.43;;
50056;SDS011;36875;49.468;11.200;2022-08-26T08:10:45;21.75;;;9.50;;
50056;SDS011;36875;49.468;11.200;2022-08-26T08:13:13;18.30;;;8.68;;
50056;SDS011;36875;49.468;11.200;2022-08-26T08:15:39;25.25;;;9.07;;
50056;SDS011;36875;49.468;11.200;2022-08-26T08:18:05;18.65;;;8.32;;
50056;SDS011;36875;49.468;11.200;2022-08-26T08:20:31;15.38;;;8.60;;
50056;SDS011;36875;49.468;11.200;2022-08-26T08:22:57;19.25;;;8.27;;
50056;SDS011;36875;49.468;11.200;2022-08-26T08:25:23;20.38;;;8.48;;
50056;SDS011;36875;49.468;11.200;2022-08-26T08:27:49;13.05;;;8.20;;
50056;SDS011;36875;49.468;11.200;2022-08-26T08:30:17;18.27;;;7.97;;
50056;SDS011;36875;49.468;11.200;2022-08-26T08:32:44;16.80;;;8.52;;
50056;SDS011;36875;49.468;11.200;2022-08-26T08:35:11;19.15;;;8.43;;
50056;SDS011;36875;49.468;11.200;2022-08-26T08:37:38;19.10;;;8.63;;
50056;SDS011;36875;49.468;11.200;2022-08-26T08:40:05;16.60;;;8.10;;
50056;SDS011;36875;49.468;11.200;2022-08-26T08:42:35;15.50;;;7.90;;
50056;SDS011;36875;49.468;11.200;2022-08-26T08:45:08;16.88;;;8.43;;
50056;SDS011;36875;49.468;11.200;2022-08-26T08:47:38;16.63;;;7.68;;
50056;SDS011;36875;49.468;11.200;2022-08-26T08:50:10;17.55;;;7.88;;
50056;SDS011;36875;49.468;11.200;2022-08-26T08:52:47;17.48;;;7.80;;
50056;SDS011;36875;49.468;11.200;2022-08-26T08:55:16;17.23;;;8.60;;
50056;SDS011;36875;49.468;11.200;2022-08-26T08:57:45;13.52;;;7.68;;
50056;SDS011;36875;49.468;11.200;2022-08-26T09:00:17;12.95;;;7.75;;
50056;SDS011;36875;49.468;11.200;2022-08-26T09:02:49;17.13;;;8.27;;
50056;SDS011;36875;49.468;11.200;2022-08-26T09:05:19;14.40;;;7.50;;
50056;SDS011;36875;49.468;11.200;2022-08-26T09:07:48;11.70;;;7.60;;
50056;SDS011;36875;49.468;11.200;2022-08-26T09:10:21;12.65;;;7.88;;
50056;SDS011;36875;49.468;11.200;2022-08-26T09:12:54;14.07;;;8.15;;
50056;SDS011;36875;49.468;11.200;2022-08-26T09:15:22;14.98;;;8.10;;
50056;SDS011;36875;49.468;11.200;2022-08-26T09:17:53;11.93;;;8.15;;
50056;SDS011;36875;49.468;11.200;2022-08-26T09:20:34;11.82;;;7.20;;
50056;SDS011;36875;49.468;11.200;2022-08-26T09:25:33;13.40;;;7.65;;
50056;SDS011;36875;49.468;11.200;2022-08-26T09:28:11;14.73;;;7.80;;
50056;SDS011;36875;49.468;11.200;2022-08-26T09:30:40;12.75;;;7.50;;
50056;SDS011;36875;49.468;11.200;2022-08-26T09:33:10;12.73;;;7.30;;
50056;SDS011;36875;49.468;11.200;2022-08-26T09:35:41;14.38;;;8.02;;
50056;SDS011;36875;49.468;11.200;2022-08-26T09:38:19;14.07;;;7.43;;
50056;SDS011;36875;49.468;11.200;2022-08-26T09:40:53;12.55;;;7.20;;
50056;SDS011;36875;49.468;11.200;2022-08-26T09:43:21;15.23;;;7.53;;
50056;SDS011;36875;49.468;11.200;2022-08-26T09:45:47;12.77;;;7.45;;
50056;SDS011;36875;49.468;11.200;2022-08-26T09:48:27;12.27;;;7.50;;
50056;SDS011;36875;49.468;11.200;2022-08-26T09:50:56;13.85;;;7.25;;
50056;SDS011;36875;49.468;11.200;2022-08-26T09:53:24;12.52;;;7.07;;
50056;SDS011;36875;49.468;11.200;2022-08-26T09:56:10;12.52;;;7.15;;
50056;SDS011;36875;49.468;11.200;2022-08-26T09:58:40;12.02;;;7.50;;
50056;SDS011;36875;49.468;11.200;2022-08-26T10:01:08;14.57;;;7.88;;
50056;SDS011;36875;49.468;11.200;2022-08-26T10:03:50;12.05;;;7.22;;
50056;SDS011;36875;49.468;11.200;2022-08-26T10:06:20;13.18;;;7.40;;
50056;SDS011;36875;49.468;11.200;2022-08-26T10:08:49;13.48;;;6.72;;
50056;SDS011;36875;49.468;11.200;2022-08-26T10:11:20;12.38;;;7.68;;
50056;SDS011;36875;49.468;11.200;2022-08-26T10:13:52;11.52;;;7.30;;
50056;SDS011;36875;49.468;11.200;2022-08-26T10:16:22;11.57;;;6.97;;
50056;SDS011;36875;49.468;11.200;2022-08-26T10:18:54;12.73;;;6.75;;
50056;SDS011;36875;49.468;11.200;2022-08-26T10:21:25;14.65;;;7.72;;
50056;SDS011;36875;49.468;11.200;2022-08-26T10:23:57;13.18;;;6.70;;
50056;SDS011;36875;49.468;11.200;2022-08-26T10:26:26;12.63;;;7.57;;
50056;SDS011;36875;49.468;11.200;2022-08-26T10:28:58;12.63;;;6.53;;
50056;SDS011;36875;49.468;11.200;2022-08-26T10:31:33;15.00;;;7.13;;
50056;SDS011;36875;49.468;11.200;2022-08-26T10:34:03;12.15;;;6.40;;
50056;SDS011;36875;49.468;11.200;2022-08-26T10:36:30;14.23;;;7.78;;
50056;SDS011;36875;49.468;11.200;2022-08-26T10:39:17;12.73;;;6.90;;
50056;SDS011;36875;49.468;11.200;2022-08-26T10:41:48;14.90;;;6.97;;
50056;SDS011;36875;49.468;11.200;2022-08-26T10:44:18;12.27;;;6.88;;
50056;SDS011;36875;49.468;11.200;2022-08-26T10:46:46;12.68;;;6.78;;
50056;SDS011;36875;49.468;11.200;2022-08-26T10:49:17;11.95;;;6.63;;
50056;SDS011;36875;49.468;11.200;2022-08-26T10:51:45;11.38;;;6.75;;
50056;SDS011;36875;49.468;11.200;2022-08-26T10:54:19;14.75;;;6.68;;
50056;SDS011;36875;49.468;11.200;2022-08-26T10:56:52;15.77;;;6.90;;
50056;SDS011;36875;49.468;11.200;2022-08-26T10:59:28;13.25;;;6.57;;
50056;SDS011;36875;49.468;11.200;2022-08-26T11:02:06;14.75;;;6.60;;
50056;SDS011;36875;49.468;11.200;2022-08-26T11:04:49;14.55;;;6.57;;
50056;SDS011;36875;49.468;11.200;2022-08-26T11:07:29;11.07;;;6.30;;
50056;SDS011;36875;49.468;11.200;2022-08-26T11:09:56;10.25;;;5.93;;
50056;SDS011;36875;49.468;11.200;2022-08-26T11:15:13;11.30;;;6.03;;
50056;SDS011;36875;49.468;11.200;2022-08-26T11:18:36;12.82;;;6.20;;
50056;SDS011;36875;49.468;11.200;2022-08-26T11:30:37;14.50;;;6.57;;
50056;SDS011;36875;49.468;11.200;2022-08-26T11:33:07;10.68;;;5.88;;
50056;SDS011;36875;49.468;11.200;2022-08-26T11:35:46;11.18;;;5.85;;
50056;SDS011;36875;49.468;11.200;2022-08-26T11:38:15;10.80;;;5.85;;
50056;SDS011;36875;49.468;11.200;2022-08-26T11:40:44;10.48;;;5.72;;
50056;SDS011;36875;49.468;11.200;2022-08-26T11:43:22;12.20;;;6.00;;
50056;SDS011;36875;49.468;11.200;2022-08-26T11:45:57;10.30;;;5.82;;
50056;SDS011;36875;49.468;11.200;2022-08-26T11:48:27;14.77;;;6.03;;
50056;SDS011;36875;49.468;11.200;2022-08-26T11:50:55;8.73;;;5.55;;
50056;SDS011;36875;49.468;11.200;2022-08-26T11:53:22;10.90;;;5.65;;
50056;SDS011;36875;49.468;11.200;2022-08-26T11:55:48;10.43;;;5.65;;
50056;SDS011;36875;49.468;11.200;2022-08-26T11:58:15;11.20;;;5.88;;
50056;SDS011;36875;49.468;11.200;2022-08-26T12:00:47;13.02;;;5.70;;
50056;SDS011;36875;49.468;11.200;2022-08-26T12:03:18;11.63;;;5.78;;
50056;SDS011;36875;49.468;11.200;2022-08-26T12:05:47;9.50;;;5.38;;
50056;SDS011;36875;49.468;11.200;2022-08-26T12:08:16;7.38;;;5.30;;
50056;SDS011;36875;49.468;11.200;2022-08-26T12:10:43;11.73;;;5.70;;
50056;SDS011;36875;49.468;11.200;2022-08-26T12:13:16;11.55;;;6.05;;
50056;SDS011;36875;49.468;11.200;2022-08-26T12:15:50;10.15;;;5.97;;
50056;SDS011;36875;49.468;11.200;2022-08-26T12:18:19;11.13;;;5.70;;
50056;SDS011;36875;49.468;11.200;2022-08-26T12:20:46;10.60;;;5.55;;
50056;SDS011;36875;49.468;11.200;2022-08-26T12:23:25;18.95;;;6.22;;
50056;SDS011;36875;49.468;11.200;2022-08-26T12:26:01;12.63;;;5.90;;
50056;SDS011;36875;49.468;11.200;2022-08-26T12:28:29;11.45;;;5.78;;
50056;SDS011;36875;49.468;11.200;2022-08-26T12:30:59;14.63;;;5.65;;
50056;SDS011;36875;49.468;11.200;2022-08-26T12:35:52;13.25;;;5.85;;
50056;SDS011;36875;49.468;11.200;2022-08-26T12:38:19;11.55;;;5.47;;
50056;SDS011;36875;49.468;11.200;2022-08-26T12:40:45;9.63;;;5.68;;
50056;SDS011;36875;49.468;11.200;2022-08-26T12:43:34;12.77;;;5.78;;
50056;SDS011;36875;49.468;11.200;2022-08-26T12:46:01;10.50;;;5.45;;
50056;SDS011;36875;49.468;11.200;2022-08-26T12:48:30;12.75;;;5.60;;
50056;SDS011;36875;49.468;11.200;2022-08-26T12:50:57;9.40;;;5.32;;
50056;SDS011;36875;49.468;11.200;2022-08-26T12:53:24;10.98;;;5.25;;
50056;SDS011;36875;49.468;11.200;2022-08-26T12:55:52;8.07;;;4.80;;
50056;SDS011;36875;49.468;11.200;2022-08-26T12:58:22;11.65;;;5.63;;
50056;SDS011;36875;49.468;11.200;2022-08-26T13:00:50;9.40;;;5.88;;
50056;SDS011;36875;49.468;11.200;2022-08-26T13:03:27;9.85;;;5.90;;
50056;SDS011;36875;49.468;11.200;2022-08-26T13:08:52;21.33;;;6.05;;
50056;SDS011;36875;49.468;11.200;2022-08-26T13:11:20;11.45;;;5.07;;
50056;SDS011;36875;49.468;11.200;2022-08-26T13:13:49;10.38;;;5.35;;
50056;SDS011;36875;49.468;11.200;2022-08-26T13:16:16;10.85;;;5.55;;
50056;SDS011;36875;49.468;11.200;2022-08-26T13:18:43;11.15;;;5.35;;
50056;SDS011;36875;49.468;11.200;2022-08-26T13:21:13;13.13;;;5.43;;
50056;SDS011;36875;49.468;11.200;2022-08-26T13:23:42;8.65;;;5.35;;
50056;SDS011;36875;49.468;11.200;2022-08-26T13:26:07;8.57;;;5.18;;
50056;SDS011;36875;49.468;11.200;2022-08-26T13:28:33;11.20;;;5.70;;
50056;SDS011;36875;49.468;11.200;2022-08-26T13:30:59;9.25;;;5.03;;
50056;SDS011;36875;49.468;11.200;2022-08-26T13:33:25;9.85;;;5.00;;
50056;SDS011;36875;49.468;11.200;2022-08-26T13:35:53;9.18;;;5.18;;
50056;SDS011;36875;49.468;11.200;2022-08-26T13:38:18;7.95;;;5.43;;
50056;SDS011;36875;49.468;11.200;2022-08-26T13:40:44;14.38;;;6.03;;
50056;SDS011;36875;49.468;11.200;2022-08-26T13:43:12;12.13;;;4.85;;
50056;SDS011;36875;49.468;11.200;2022-08-26T13:45:38;13.57;;;5.60;;
50056;SDS011;36875;49.468;11.200;2022-08-26T13:48:04;11.45;;;5.13;;
50056;SDS011;36875;49.468;11.200;2022-08-26T13:50:31;9.75;;;5.30;;
50056;SDS011;36875;49.468;11.200;2022-08-26T13:52:59;11.43;;;5.25;;
50056;SDS011;36875;49.468;11.200;2022-08-26T13:55:25;9.18;;;5.03;;
50056;SDS011;36875;49.468;11.200;2022-08-26T13:57:51;13.05;;;5.35;;
50056;SDS011;36875;49.468;11.200;2022-08-26T14:00:17;13.18;;;6.00;;
50056;SDS011;36875;49.468;11.200;2022-08-26T14:02:44;10.73;;;5.22;;
50056;SDS011;36875;49.468;11.200;2022-08-26T14:05:10;12.68;;;5.38;;
50056;SDS011;36875;49.468;11.200;2022-08-26T14:07:35;18.85;;;5.47;;
50056;SDS011;36875;49.468;11.200;2022-08-26T14:10:02;18.05;;;5.97;;
50056;SDS011;36875;49.468;11.200;2022-08-26T14:12:28;12.77;;;5.45;;
50056;SDS011;36875;49.468;11.200;2022-08-26T14:14:54;9.13;;;4.97;;
50056;SDS011;36875;49.468;11.200;2022-08-26T14:17:20;12.30;;;5.43;;
50056;SDS011;36875;49.468;11.200;2022-08-26T14:19:51;15.00;;;5.20;;
50056;SDS011;36875;49.468;11.200;2022-08-26T14:22:18;9.52;;;5.28;;
50056;SDS011;36875;49.468;11.200;2022-08-26T14:24:46;11.07;;;4.90;;
50056;SDS011;36875;49.468;11.200;2022-08-26T14:27:13;18.00;;;5.18;;
50056;SDS011;36875;49.468;11.200;2022-08-26T14:29:39;10.40;;;4.88;;
50056;SDS011;36875;49.468;11.200;2022-08-26T14:32:06;14.82;;;5.88;;
50056;SDS011;36875;49.468;11.200;2022-08-26T14:34:35;12.18;;;5.43;;
50056;SDS011;36875;49.468;11.200;2022-08-26T14:37:01;13.43;;;5.22;;
50056;SDS011;36875;49.468;11.200;2022-08-26T14:39:26;10.82;;;5.28;;
50056;SDS011;36875;49.468;11.200;2022-08-26T14:41:53;10.52;;;5.10;;
50056;SDS011;36875;49.468;11.200;2022-08-26T14:44:23;10.80;;;4.80;;
50056;SDS011;36875;49.468;11.200;2022-08-26T14:46:51;13.85;;;4.72;;
50056;SDS011;36875;49.468;11.200;2022-08-26T14:49:18;12.10;;;4.68;;